createdAt,value
2016-08-10T00:00:54.202Z,0
2016-08-10T00:01:55.826Z,0
2016-08-10T00:02:57.532Z,0
2016-08-10T00:03:55.848Z,0
2016-08-10T00:04:55.513Z,0
2016-08-10T00:05:54.658Z,0
2016-08-10T00:06:54.289Z,0
2016-08-10T00:07:54.050Z,0
2016-08-10T00:08:56.564Z,0
2016-08-10T00:09:55.924Z,0
2016-08-10T00:10:54.134Z,0
2016-08-10T00:11:55.306Z,0
2016-08-10T00:12:55.022Z,0
2016-08-10T00:13:54.532Z,0
2016-08-10T00:14:56.226Z,0
2016-08-10T00:15:58.152Z,0
2016-08-10T00:16:55.360Z,0
2016-08-10T00:17:57.858Z,0
2016-08-10T00:18:55.967Z,0
2016-08-10T00:19:54.570Z,0
2016-08-10T00:20:55.988Z,0
2016-08-10T00:21:56.145Z,0
2016-08-10T00:22:55.144Z,0
2016-08-10T00:23:55.057Z,0
2016-08-10T00:24:55.246Z,0
2016-08-10T00:25:56.046Z,0
2016-08-10T00:26:56.484Z,0
2016-08-10T00:27:54.435Z,0
2016-08-10T00:28:55.184Z,0
2016-08-10T00:29:55.876Z,0
2016-08-10T00:30:56.100Z,0
2016-08-10T00:31:56.231Z,0
2016-08-10T00:32:56.372Z,0
2016-08-10T00:33:57.181Z,0
2016-08-10T00:34:54.761Z,0
2016-08-10T00:35:54.780Z,0
2016-08-10T00:36:55.884Z,0
2016-08-10T00:37:55.801Z,0
2016-08-10T00:38:56.714Z,0
2016-08-10T00:39:55.477Z,0
2016-08-10T00:40:56.191Z,0
2016-08-10T00:41:54.820Z,0
2016-08-10T00:42:55.811Z,0
2016-08-10T00:43:56.194Z,0
2016-08-10T00:44:56.128Z,0
2016-08-10T00:45:56.232Z,0
2016-08-10T00:46:55.352Z,0
2016-08-10T00:47:56.494Z,0
2016-08-10T00:48:56.792Z,0
2016-08-10T00:49:56.634Z,0
2016-08-10T00:50:57.214Z,0
2016-08-10T00:51:55.799Z,0
2016-08-10T00:52:56.021Z,0
2016-08-10T00:53:57.336Z,0
2016-08-10T00:54:54.219Z,0
2016-08-10T00:55:57.655Z,0
2016-08-10T00:56:57.186Z,0
2016-08-10T00:57:56.926Z,0
2016-08-10T00:58:58.286Z,0
2016-08-10T00:59:56.640Z,0
2016-08-10T01:00:57.307Z,0
2016-08-10T01:01:56.357Z,0
2016-08-10T01:02:55.384Z,0
2016-08-10T01:03:58.186Z,0
2016-08-10T01:04:58.505Z,0
2016-08-10T01:05:55.375Z,0
2016-08-10T01:06:56.442Z,0
2016-08-10T01:07:56.008Z,0
2016-08-10T01:08:57.176Z,0
2016-08-10T01:09:56.878Z,0
2016-08-10T01:10:57.012Z,0
2016-08-10T01:11:57.045Z,0
2016-08-10T01:12:58.045Z,0
2016-08-10T01:13:56.648Z,0
2016-08-10T01:14:56.602Z,0
2016-08-10T01:15:57.567Z,0
2016-08-10T01:16:56.252Z,0
2016-08-10T01:17:57.392Z,0
2016-08-10T01:18:55.831Z,0
2016-08-10T01:19:56.783Z,0
2016-08-10T01:20:55.870Z,0
2016-08-10T01:21:56.916Z,0
2016-08-10T01:22:57.280Z,0
2016-08-10T01:23:57.304Z,0
2016-08-10T01:24:56.915Z,0
2016-08-10T01:25:57.515Z,0
2016-08-10T01:26:59.035Z,0
2016-08-10T01:27:57.186Z,0
2016-08-10T01:28:56.652Z,0
2016-08-10T01:29:57.027Z,0
2016-08-10T01:30:56.085Z,0
2016-08-10T01:31:57.834Z,0
2016-08-10T01:32:57.344Z,0
2016-08-10T01:33:56.793Z,0
2016-08-10T01:34:57.169Z,0
2016-08-10T01:35:56.456Z,0
2016-08-10T01:36:57.160Z,0
2016-08-10T01:37:56.462Z,0
2016-08-10T01:38:57.118Z,0
2016-08-10T01:39:56.371Z,0
2016-08-10T01:40:56.579Z,0
2016-08-10T01:41:58.333Z,0
2016-08-10T01:42:57.700Z,0
2016-08-10T01:43:57.939Z,0
2016-08-10T01:44:57.345Z,0
2016-08-10T01:45:56.855Z,0
2016-08-10T01:46:56.829Z,0
2016-08-10T01:47:57.806Z,0
2016-08-10T01:48:57.004Z,0
2016-08-10T01:49:57.651Z,0
2016-08-10T01:50:59.924Z,0
2016-08-10T01:52:00.515Z,0
2016-08-10T01:53:57.315Z,0
2016-08-10T01:54:57.456Z,0
2016-08-10T01:55:59.252Z,0
2016-08-10T01:57:00.173Z,0
2016-08-10T01:57:58.339Z,0
2016-08-10T01:58:57.242Z,0
2016-08-10T01:59:56.692Z,0
2016-08-10T02:00:58.880Z,0
2016-08-10T02:01:58.742Z,0
2016-08-10T02:02:59.135Z,0
2016-08-10T02:03:57.333Z,0
2016-08-10T02:04:57.775Z,0
2016-08-10T02:05:58.165Z,0
2016-08-10T02:06:57.906Z,0
2016-08-10T02:08:56.071Z,0
2016-08-10T02:09:57.667Z,0
2016-08-10T02:10:57.646Z,0
2016-08-10T02:11:56.892Z,0
2016-08-10T02:12:57.280Z,0
2016-08-10T02:13:56.691Z,0
2016-08-10T02:14:59.180Z,0
2016-08-10T02:15:56.722Z,0
2016-08-10T02:16:59.275Z,0
2016-08-10T02:17:58.983Z,0
2016-08-10T02:18:57.271Z,0
2016-08-10T02:19:56.853Z,0
2016-08-10T02:20:58.000Z,0
2016-08-10T02:21:56.969Z,0
2016-08-10T02:23:58.999Z,0
2016-08-10T02:24:57.530Z,0
2016-08-10T02:25:58.172Z,0
2016-08-10T02:26:57.751Z,0
2016-08-10T02:27:57.003Z,0
2016-08-10T02:28:58.094Z,0
2016-08-10T02:29:58.268Z,0
2016-08-10T02:30:57.794Z,0
2016-08-10T02:31:58.882Z,0
2016-08-10T02:32:57.593Z,0
2016-08-10T02:33:59.774Z,0
2016-08-10T02:34:58.357Z,0
2016-08-10T02:35:59.020Z,0
2016-08-10T02:36:57.819Z,0
2016-08-10T02:37:58.804Z,0
2016-08-10T02:38:58.780Z,0
2016-08-10T02:40:00.015Z,0
2016-08-10T02:40:59.618Z,0
2016-08-10T02:41:57.680Z,0
2016-08-10T02:42:57.937Z,0
2016-08-10T02:43:58.493Z,0
2016-08-10T02:44:58.069Z,0
2016-08-10T02:45:57.701Z,0
2016-08-10T02:47:00.922Z,0
2016-08-10T02:47:58.362Z,0
2016-08-10T02:48:59.505Z,0
2016-08-10T02:49:58.078Z,0
2016-08-10T02:50:58.823Z,0
2016-08-10T02:52:04.339Z,0
2016-08-10T02:52:58.644Z,0
2016-08-10T02:53:59.613Z,0
2016-08-10T02:54:57.360Z,0
2016-08-10T02:55:59.651Z,0
2016-08-10T02:56:58.467Z,0
2016-08-10T02:57:59.132Z,0
2016-08-10T02:58:58.611Z,0
2016-08-10T02:59:57.392Z,0
2016-08-10T03:00:58.624Z,0
2016-08-10T03:01:58.591Z,0
2016-08-10T03:02:57.630Z,0
2016-08-10T03:03:58.730Z,0
2016-08-10T03:04:59.489Z,0
2016-08-10T03:05:59.755Z,0
2016-08-10T03:06:57.533Z,0
2016-08-10T03:07:59.605Z,0
2016-08-10T03:08:58.160Z,0
2016-08-10T03:09:59.649Z,0
2016-08-10T03:10:58.669Z,0
2016-08-10T03:11:58.063Z,0
2016-08-10T03:12:58.581Z,0
2016-08-10T03:14:00.651Z,0
2016-08-10T03:15:01.376Z,0
2016-08-10T03:15:59.245Z,0
2016-08-10T03:16:58.665Z,0
2016-08-10T03:17:59.444Z,0
2016-08-10T03:18:59.269Z,0
2016-08-10T03:20:01.480Z,0
2016-08-10T03:20:59.467Z,0
2016-08-10T03:21:58.602Z,0
2016-08-10T03:23:00.102Z,0
2016-08-10T03:24:00.379Z,0
2016-08-10T03:25:00.184Z,0
2016-08-10T03:26:00.332Z,0
2016-08-10T03:26:59.215Z,0
2016-08-10T03:27:59.154Z,0
2016-08-10T03:28:59.684Z,0
2016-08-10T03:30:00.246Z,0
2016-08-10T03:30:59.105Z,0
2016-08-10T03:32:00.395Z,0
2016-08-10T03:32:59.618Z,0
2016-08-10T03:33:59.303Z,0
2016-08-10T03:35:00.328Z,0
2016-08-10T03:35:59.060Z,0
2016-08-10T03:37:00.205Z,0
2016-08-10T03:37:58.732Z,0
2016-08-10T03:39:01.205Z,0
2016-08-10T03:40:00.390Z,0
2016-08-10T03:41:00.041Z,0
2016-08-10T03:42:01.367Z,0
2016-08-10T03:42:59.746Z,0
2016-08-10T03:43:58.550Z,0
2016-08-10T03:45:00.042Z,0
2016-08-10T03:45:59.512Z,0
2016-08-10T03:46:59.123Z,0
2016-08-10T03:48:00.366Z,0
2016-08-10T03:49:00.062Z,5
2016-08-10T03:50:00.080Z,5
2016-08-10T03:50:59.329Z,5
2016-08-10T03:52:00.634Z,5
2016-08-10T03:52:59.908Z,5
2016-08-10T03:53:59.966Z,5
2016-08-10T03:55:00.157Z,5
2016-08-10T03:56:00.393Z,10
2016-08-10T03:57:01.772Z,10
2016-08-10T03:58:00.036Z,10
2016-08-10T03:58:58.735Z,10
2016-08-10T03:59:59.332Z,10
2016-08-10T04:01:00.363Z,10
2016-08-10T04:01:59.932Z,15
2016-08-10T04:02:59.242Z,15
2016-08-10T04:04:00.316Z,15
2016-08-10T04:04:59.785Z,15
2016-08-10T04:06:01.469Z,15
2016-08-10T04:06:59.560Z,20
2016-08-10T04:08:01.452Z,20
2016-08-10T04:09:01.511Z,20
2016-08-10T04:09:58.538Z,20
2016-08-10T04:10:59.765Z,25
2016-08-10T04:12:00.652Z,25
2016-08-10T04:12:58.718Z,30
2016-08-10T04:14:00.608Z,30
2016-08-10T04:14:59.975Z,30
2016-08-10T04:16:01.276Z,35
2016-08-10T04:17:01.316Z,35
2016-08-10T04:18:00.745Z,40
2016-08-10T04:19:00.255Z,40
2016-08-10T04:20:00.499Z,45
2016-08-10T04:21:00.238Z,50
2016-08-10T04:22:00.716Z,50
2016-08-10T04:23:02.003Z,55
2016-08-10T04:24:01.738Z,60
2016-08-10T04:25:00.611Z,65
2016-08-10T04:26:00.426Z,65
2016-08-10T04:27:01.696Z,70
2016-08-10T04:27:59.710Z,70
2016-08-10T04:29:01.539Z,75
2016-08-10T04:30:01.666Z,75
2016-08-10T04:31:00.591Z,80
2016-08-10T04:32:00.931Z,85
2016-08-10T04:32:59.497Z,90
2016-08-10T04:34:00.530Z,95
2016-08-10T04:35:02.319Z,100
2016-08-10T04:36:01.006Z,105
2016-08-10T04:37:00.850Z,105
2016-08-10T04:38:02.049Z,105
2016-08-10T04:39:01.308Z,105
2016-08-10T04:40:01.031Z,105
2016-08-10T04:40:59.858Z,110
2016-08-10T04:42:01.179Z,110
2016-08-10T04:43:02.559Z,115
2016-08-10T04:44:00.183Z,120
2016-08-10T04:45:00.373Z,120
2016-08-10T04:45:59.891Z,125
2016-08-10T04:47:02.685Z,130
2016-08-10T04:48:01.155Z,135
2016-08-10T04:49:01.904Z,140
2016-08-10T04:50:03.320Z,140
2016-08-10T04:51:01.571Z,140
2016-08-10T04:52:00.454Z,140
2016-08-10T04:53:00.932Z,135
2016-08-10T04:54:01.212Z,135
2016-08-10T04:55:01.453Z,135
2016-08-10T04:56:01.315Z,135
2016-08-10T04:57:01.003Z,135
2016-08-10T04:58:03.580Z,130
2016-08-10T04:59:00.479Z,130
2016-08-10T05:00:00.958Z,135
2016-08-10T05:01:00.410Z,135
2016-08-10T05:02:01.301Z,140
2016-08-10T05:03:01.538Z,140
2016-08-10T05:04:01.584Z,145
2016-08-10T05:05:00.140Z,145
2016-08-10T05:06:00.518Z,150
2016-08-10T05:06:59.861Z,150
2016-08-10T05:08:02.679Z,150
2016-08-10T05:09:02.685Z,145
2016-08-10T05:10:02.240Z,135
2016-08-10T05:11:00.447Z,125
2016-08-10T05:12:01.463Z,115
2016-08-10T05:13:01.454Z,110
2016-08-10T05:14:01.784Z,110
2016-08-10T05:15:01.653Z,115
2016-08-10T05:16:02.193Z,110
2016-08-10T05:17:00.175Z,110
2016-08-10T05:18:01.431Z,120
2016-08-10T05:19:01.954Z,125
2016-08-10T05:20:03.111Z,125
2016-08-10T05:21:00.968Z,120
2016-08-10T05:22:00.352Z,110
2016-08-10T05:23:02.494Z,110
2016-08-10T05:24:02.773Z,125
2016-08-10T05:25:01.824Z,145
2016-08-10T05:26:01.703Z,170
2016-08-10T05:27:02.058Z,185
2016-08-10T05:28:00.839Z,220
2016-08-10T05:29:02.339Z,275
2016-08-10T05:30:00.829Z,320
2016-08-10T05:31:02.016Z,365
2016-08-10T05:32:02.225Z,405
2016-08-10T05:33:02.219Z,445
2016-08-10T05:34:02.069Z,470
2016-08-10T05:35:03.208Z,475
2016-08-10T05:36:04.197Z,470
2016-08-10T05:37:03.221Z,460
2016-08-10T05:38:02.850Z,440
2016-08-10T05:39:03.504Z,410
2016-08-10T05:40:01.963Z,385
2016-08-10T05:41:02.876Z,375
2016-08-10T05:42:01.604Z,375
2016-08-10T05:43:01.953Z,375
2016-08-10T05:44:03.524Z,360
2016-08-10T05:45:02.649Z,350
2016-08-10T05:46:02.692Z,360
2016-08-10T05:47:03.187Z,385
2016-08-10T05:48:01.952Z,415
2016-08-10T05:49:03.012Z,445
2016-08-10T05:50:04.750Z,470
2016-08-10T05:51:02.779Z,485
2016-08-10T05:52:03.006Z,485
2016-08-10T05:53:03.344Z,475
2016-08-10T05:55:01.847Z,400
2016-08-10T05:56:02.846Z,350
2016-08-10T05:57:01.804Z,300
2016-08-10T05:58:02.376Z,255
2016-08-10T05:59:01.734Z,225
2016-08-10T06:00:01.571Z,205
2016-08-10T06:01:03.007Z,200
2016-08-10T06:02:01.837Z,185
2016-08-10T06:03:01.930Z,175
2016-08-10T06:04:02.670Z,165
2016-08-10T06:05:03.412Z,160
2016-08-10T06:06:03.003Z,160
2016-08-10T06:07:03.896Z,160
2016-08-10T06:08:02.282Z,165
2016-08-10T06:10:02.830Z,165
2016-08-10T06:11:03.676Z,160
2016-08-10T06:12:02.492Z,155
2016-08-10T06:13:03.025Z,140
2016-08-10T06:14:01.869Z,125
2016-08-10T06:15:03.444Z,120
2016-08-10T06:16:02.437Z,125
2016-08-10T06:17:02.617Z,135
2016-08-10T06:18:04.401Z,135
2016-08-10T06:19:01.699Z,130
2016-08-10T06:20:04.570Z,115
2016-08-10T06:21:03.955Z,100
2016-08-10T06:22:02.529Z,90
2016-08-10T06:23:03.238Z,85
2016-08-10T06:25:04.557Z,115
2016-08-10T06:26:03.710Z,130
2016-08-10T06:27:02.965Z,145
2016-08-10T06:28:03.796Z,155
2016-08-10T06:30:03.049Z,170
2016-08-10T06:31:03.498Z,175
2016-08-10T06:32:03.253Z,180
2016-08-10T06:33:02.950Z,195
2016-08-10T06:34:03.262Z,205
2016-08-10T06:35:03.009Z,220
2016-08-10T06:36:02.992Z,230
2016-08-10T06:37:03.618Z,250
2016-08-10T06:38:02.730Z,265
2016-08-10T06:39:03.005Z,285
2016-08-10T06:40:02.548Z,310
2016-08-10T06:41:03.505Z,325
2016-08-10T06:42:03.734Z,340
2016-08-10T06:43:04.507Z,345
2016-08-10T06:44:03.268Z,350
2016-08-10T06:45:04.338Z,350
2016-08-10T06:46:03.862Z,345
2016-08-10T06:47:02.252Z,350
2016-08-10T06:48:04.010Z,360
2016-08-10T06:49:04.473Z,375
2016-08-10T06:50:04.670Z,405
2016-08-10T06:51:03.884Z,430
2016-08-10T06:52:02.401Z,440
2016-08-10T06:53:05.779Z,440
2016-08-10T06:54:04.142Z,425
2016-08-10T06:55:03.482Z,405
2016-08-10T06:56:03.305Z,385
2016-08-10T06:57:04.054Z,365
2016-08-10T06:58:04.005Z,350
2016-08-10T06:59:03.210Z,345
2016-08-10T07:00:04.561Z,340
2016-08-10T07:01:04.666Z,345
2016-08-10T07:02:03.134Z,355
2016-08-10T07:03:03.896Z,365
2016-08-10T07:04:04.626Z,390
2016-08-10T07:05:03.657Z,420
2016-08-10T07:06:04.576Z,450
2016-08-10T07:07:03.188Z,475
2016-08-10T07:08:05.766Z,505
2016-08-10T07:09:03.249Z,515
2016-08-10T07:10:03.112Z,515
2016-08-10T07:11:06.437Z,530
2016-08-10T07:12:04.708Z,565
2016-08-10T07:13:04.333Z,620
2016-08-10T07:14:03.685Z,695
2016-08-10T07:15:04.896Z,780
2016-08-10T07:16:05.306Z,810
2016-08-10T07:17:05.663Z,795
2016-08-10T07:18:04.799Z,730
2016-08-10T07:19:04.645Z,630
2016-08-10T07:20:04.290Z,570
2016-08-10T07:21:05.070Z,510
2016-08-10T07:22:04.045Z,465
2016-08-10T07:23:04.457Z,470
2016-08-10T07:24:05.263Z,500
2016-08-10T07:25:03.057Z,520
2016-08-10T07:26:04.756Z,520
2016-08-10T07:27:05.716Z,515
2016-08-10T07:28:04.451Z,510
2016-08-10T07:29:03.579Z,505
2016-08-10T07:30:04.906Z,515
2016-08-10T07:31:04.007Z,535
2016-08-10T07:32:04.765Z,570
2016-08-10T07:33:03.976Z,630
2016-08-10T07:34:06.100Z,715
2016-08-10T07:35:03.850Z,805
2016-08-10T07:36:04.724Z,890
2016-08-10T07:37:04.467Z,945
2016-08-10T07:38:06.373Z,945
2016-08-10T07:39:05.533Z,925
2016-08-10T07:40:08.324Z,920
2016-08-10T07:41:05.525Z,955
2016-08-10T07:42:03.944Z,1010
2016-08-10T07:43:04.794Z,1055
2016-08-10T07:44:04.788Z,1085
2016-08-10T07:45:04.124Z,1080
2016-08-10T07:46:05.111Z,1070
2016-08-10T07:47:04.330Z,1040
2016-08-10T07:48:04.765Z,1005
2016-08-10T07:49:04.771Z,990
2016-08-10T07:50:04.952Z,985
2016-08-10T07:51:08.062Z,1010
2016-08-10T07:52:05.114Z,1010
2016-08-10T07:53:05.703Z,1010
2016-08-10T07:54:05.286Z,975
2016-08-10T07:55:05.619Z,895
2016-08-10T07:56:06.301Z,860
2016-08-10T07:57:04.779Z,830
2016-08-10T07:58:04.607Z,880
2016-08-10T07:59:05.746Z,980
2016-08-10T08:00:05.144Z,1045
2016-08-10T08:01:06.855Z,1130
2016-08-10T08:02:05.900Z,1200
2016-08-10T08:03:06.195Z,1175
2016-08-10T08:04:05.412Z,1145
2016-08-10T08:05:04.778Z,1115
2016-08-10T08:06:06.258Z,1005
2016-08-10T08:07:05.200Z,830
2016-08-10T08:08:04.983Z,680
2016-08-10T08:09:06.558Z,570
2016-08-10T08:10:06.959Z,455
2016-08-10T08:11:08.055Z,400
2016-08-10T08:12:05.230Z,410
2016-08-10T08:13:05.330Z,435
2016-08-10T08:14:04.985Z,495
2016-08-10T08:15:05.493Z,600
2016-08-10T08:16:06.311Z,765
2016-08-10T08:17:06.793Z,935
2016-08-10T08:18:06.002Z,1125
2016-08-10T08:19:06.033Z,1330
2016-08-10T08:20:05.943Z,1485
2016-08-10T08:21:05.432Z,1550
2016-08-10T08:22:06.396Z,1565
2016-08-10T08:23:06.189Z,1600
2016-08-10T08:24:05.260Z,1990
2016-08-10T08:25:06.767Z,1995
2016-08-10T08:26:05.965Z,1500
2016-08-10T08:27:07.022Z,1425
2016-08-10T08:28:06.902Z,1240
2016-08-10T08:29:07.246Z,1115
2016-08-10T08:30:07.283Z,870
2016-08-10T08:31:08.594Z,685
2016-08-10T08:32:08.332Z,600
2016-08-10T08:33:07.034Z,600
2016-08-10T08:34:06.206Z,670
2016-08-10T08:35:06.894Z,755
2016-08-10T08:36:06.486Z,810
2016-08-10T08:37:07.055Z,855
2016-08-10T08:38:05.979Z,920
2016-08-10T08:39:05.674Z,1030
2016-08-10T08:40:06.877Z,1110
2016-08-10T08:41:08.861Z,1180
2016-08-10T08:42:08.105Z,1305
2016-08-10T08:43:09.468Z,1470
2016-08-10T08:44:05.633Z,1675
2016-08-10T08:45:06.716Z,1955
2016-08-10T08:46:06.487Z,1890
2016-08-10T08:47:05.430Z,1375
2016-08-10T08:48:06.118Z,1330
2016-08-10T08:49:06.057Z,1245
2016-08-10T08:50:07.285Z,1035
2016-08-10T08:51:08.827Z,750
2016-08-10T08:52:07.541Z,535
2016-08-10T08:53:07.731Z,460
2016-08-10T08:54:05.739Z,465
2016-08-10T08:55:05.921Z,505
2016-08-10T08:56:06.774Z,545
2016-08-10T08:57:06.456Z,535
2016-08-10T08:58:07.429Z,520
2016-08-10T08:59:07.713Z,505
2016-08-10T09:00:06.297Z,495
2016-08-10T09:01:08.258Z,530
2016-08-10T09:02:07.697Z,590
2016-08-10T09:03:07.325Z,700
2016-08-10T09:04:07.050Z,845
2016-08-10T09:05:07.830Z,1035
2016-08-10T09:06:07.695Z,1190
2016-08-10T09:07:07.247Z,1270
2016-08-10T09:08:07.575Z,1325
2016-08-10T09:09:06.957Z,1365
2016-08-10T09:10:06.899Z,1600
2016-08-10T09:11:07.066Z,1310
2016-08-10T09:12:07.444Z,1185
2016-08-10T09:13:07.341Z,1095
2016-08-10T09:14:07.222Z,1000
2016-08-10T09:15:05.796Z,895
2016-08-10T09:16:05.940Z,795
2016-08-10T09:17:06.356Z,705
2016-08-10T09:18:07.629Z,600
2016-08-10T09:19:07.474Z,485
2016-08-10T09:20:08.020Z,405
2016-08-10T09:21:10.144Z,370
2016-08-10T09:22:07.196Z,315
2016-08-10T09:23:06.051Z,275
2016-08-10T09:24:06.425Z,270
2016-08-10T09:25:09.577Z,310
2016-08-10T09:26:08.706Z,380
2016-08-10T09:27:06.395Z,450
2016-08-10T09:28:07.018Z,520
2016-08-10T09:29:10.498Z,590
2016-08-10T09:30:10.894Z,685
2016-08-10T09:31:07.148Z,790
2016-08-10T09:32:08.789Z,900
2016-08-10T09:33:07.103Z,1010
2016-08-10T09:34:07.791Z,1185
2016-08-10T09:35:07.589Z,1415
2016-08-10T09:36:08.995Z,1655
2016-08-10T09:37:07.112Z,2465
2016-08-10T09:38:08.608Z,2875
2016-08-10T09:39:07.301Z,2545
2016-08-10T09:40:10.662Z,1370
2016-08-10T09:41:09.150Z,1210
2016-08-10T09:42:08.520Z,1150
2016-08-10T09:43:09.181Z,1185
2016-08-10T09:44:08.238Z,1295
2016-08-10T09:45:07.333Z,1495
2016-08-10T09:46:07.203Z,1710
2016-08-10T09:47:08.883Z,2655
2016-08-10T09:48:08.129Z,1850
2016-08-10T09:49:09.012Z,1505
2016-08-10T09:50:08.771Z,1280
2016-08-10T09:51:09.844Z,1100
2016-08-10T09:52:07.310Z,1000
2016-08-10T09:53:09.408Z,920
2016-08-10T09:54:08.550Z,875
2016-08-10T09:55:08.230Z,840
2016-08-10T09:56:07.816Z,805
2016-08-10T09:57:08.088Z,760
2016-08-10T09:58:07.425Z,705
2016-08-10T09:59:08.730Z,670
2016-08-10T10:00:07.035Z,655
2016-08-10T10:01:10.780Z,630
2016-08-10T10:02:10.054Z,635
2016-08-10T10:03:08.117Z,685
2016-08-10T10:04:07.629Z,725
2016-08-10T10:05:08.034Z,755
2016-08-10T10:06:08.401Z,760
2016-08-10T10:07:07.890Z,735
2016-08-10T10:08:08.208Z,705
2016-08-10T10:09:08.117Z,730
2016-08-10T10:10:07.957Z,2645
2016-08-10T10:11:10.499Z,3085
2016-08-10T10:12:09.074Z,3470
2016-08-10T10:13:08.238Z,3455
2016-08-10T10:14:09.087Z,3155
2016-08-10T10:15:10.059Z,3410
2016-08-10T10:16:09.456Z,3590
2016-08-10T10:17:09.487Z,3345
2016-08-10T10:18:08.207Z,2590
2016-08-10T10:19:08.028Z,880
2016-08-10T10:20:09.280Z,950
2016-08-10T10:21:08.415Z,1035
2016-08-10T10:22:11.345Z,1095
2016-08-10T10:23:09.567Z,1115
2016-08-10T10:24:08.912Z,1095
2016-08-10T10:25:07.791Z,1000
2016-08-10T10:26:09.446Z,860
2016-08-10T10:27:09.050Z,735
2016-08-10T10:28:07.355Z,625
2016-08-10T10:29:10.093Z,535
2016-08-10T10:30:09.539Z,490
2016-08-10T10:31:10.094Z,475
2016-08-10T10:32:08.789Z,475
2016-08-10T10:33:09.298Z,520
2016-08-10T10:34:09.636Z,600
2016-08-10T10:35:08.823Z,745
2016-08-10T10:36:08.662Z,925
2016-08-10T10:37:08.811Z,1045
2016-08-10T10:38:08.502Z,1080
2016-08-10T10:39:08.876Z,1060
2016-08-10T10:40:09.385Z,960
2016-08-10T10:41:09.237Z,890
2016-08-10T10:42:10.483Z,740
2016-08-10T10:43:10.115Z,670
2016-08-10T10:44:08.168Z,655
2016-08-10T10:45:12.151Z,680
2016-08-10T10:46:08.452Z,695
2016-08-10T10:47:10.495Z,730
2016-08-10T10:48:10.812Z,780
2016-08-10T10:49:12.360Z,845
2016-08-10T10:50:11.539Z,1085
2016-08-10T10:51:10.039Z,3525
2016-08-10T10:52:10.238Z,3530
2016-08-10T10:53:09.882Z,2990
2016-08-10T10:54:09.727Z,1125
2016-08-10T10:55:09.766Z,3900
2016-08-10T10:56:09.244Z,1715
2016-08-10T10:57:08.676Z,1065
2016-08-10T10:58:10.347Z,3585
2016-08-10T10:59:09.780Z,3915
2016-08-10T11:00:10.478Z,3605
2016-08-10T11:01:10.555Z,1280
2016-08-10T11:02:09.387Z,2370
2016-08-10T11:03:10.143Z,1000
2016-08-10T11:04:10.267Z,845
2016-08-10T11:05:09.226Z,635
2016-08-10T11:06:10.213Z,505
2016-08-10T11:07:10.108Z,440
2016-08-10T11:08:09.495Z,440
2016-08-10T11:09:09.526Z,475
2016-08-10T11:10:09.372Z,515
2016-08-10T11:11:09.964Z,580
2016-08-10T11:12:10.234Z,670
2016-08-10T11:13:09.611Z,810
2016-08-10T11:14:11.033Z,915
2016-08-10T11:15:10.338Z,950
2016-08-10T11:16:10.158Z,875
2016-08-10T11:17:09.432Z,3185
2016-08-10T11:18:10.276Z,835
2016-08-10T11:19:10.477Z,845
2016-08-10T11:20:10.656Z,4215
2016-08-10T11:21:12.365Z,3520
2016-08-10T11:22:10.758Z,3815
2016-08-10T11:23:10.616Z,3375
2016-08-10T11:24:10.141Z,3305
2016-08-10T11:25:09.529Z,3040
2016-08-10T11:26:10.160Z,2605
2016-08-10T11:27:10.121Z,3580
2016-08-10T11:28:11.069Z,3925
2016-08-10T11:29:09.381Z,3985
2016-08-10T11:30:10.684Z,3745
2016-08-10T11:31:09.025Z,3655
2016-08-10T11:32:10.678Z,3255
2016-08-10T11:33:11.823Z,3185
2016-08-10T11:34:13.084Z,1945
2016-08-10T11:35:12.466Z,3300
2016-08-10T11:36:10.735Z,3190
2016-08-10T11:37:12.807Z,3690
2016-08-10T11:38:10.304Z,3570
2016-08-10T11:39:12.299Z,3725
2016-08-10T11:40:10.735Z,3040
2016-08-10T11:41:12.574Z,1380
2016-08-10T11:42:11.836Z,3125
2016-08-10T11:43:10.219Z,3050
2016-08-10T11:44:10.980Z,1445
2016-08-10T11:45:10.058Z,3555
2016-08-10T11:46:12.631Z,4155
2016-08-10T11:47:11.973Z,1115
2016-08-10T11:48:10.874Z,875
2016-08-10T11:49:11.627Z,675
2016-08-10T11:50:11.353Z,505
2016-08-10T11:51:09.132Z,400
2016-08-10T11:52:10.238Z,365
2016-08-10T11:53:10.941Z,375
2016-08-10T11:54:10.456Z,405
2016-08-10T11:55:10.252Z,400
2016-08-10T11:56:10.947Z,375
2016-08-10T11:57:10.577Z,355
2016-08-10T11:58:10.998Z,330
2016-08-10T11:59:10.107Z,315
2016-08-10T12:00:09.644Z,315
2016-08-10T12:01:10.055Z,320
2016-08-10T12:02:11.869Z,335
2016-08-10T12:03:11.371Z,365
2016-08-10T12:04:12.379Z,400
2016-08-10T12:05:12.943Z,450
2016-08-10T12:06:12.082Z,490
2016-08-10T12:07:11.972Z,530
2016-08-10T12:08:12.423Z,540
2016-08-10T12:09:12.979Z,535
2016-08-10T12:10:12.083Z,525
2016-08-10T12:11:12.532Z,505
2016-08-10T12:12:14.562Z,490
2016-08-10T12:13:12.728Z,495
2016-08-10T12:14:10.250Z,500
2016-08-10T12:15:13.052Z,515
2016-08-10T12:16:13.550Z,520
2016-08-10T12:17:12.400Z,530
2016-08-10T12:18:12.212Z,545
2016-08-10T12:19:11.681Z,535
2016-08-10T12:20:14.062Z,540
2016-08-10T12:21:12.264Z,550
2016-08-10T12:22:14.132Z,550
2016-08-10T12:23:12.809Z,560
2016-08-10T12:24:12.784Z,585
2016-08-10T12:25:13.321Z,615
2016-08-10T12:26:13.534Z,650
2016-08-10T12:27:10.998Z,675
2016-08-10T12:28:12.445Z,710
2016-08-10T12:29:11.952Z,745
2016-08-10T12:30:11.770Z,795
2016-08-10T12:31:14.753Z,850
2016-08-10T12:32:13.759Z,905
2016-08-10T12:33:13.398Z,950
2016-08-10T12:34:13.807Z,1005
2016-08-10T12:35:11.258Z,1055
2016-08-10T12:36:12.498Z,1120
2016-08-10T12:37:14.743Z,1225
2016-08-10T12:38:13.742Z,1220
2016-08-10T12:39:11.881Z,1190
2016-08-10T12:40:12.151Z,1385
2016-08-10T12:41:13.131Z,4235
2016-08-10T12:42:12.828Z,4180
2016-08-10T12:43:12.400Z,1590
2016-08-10T12:44:11.388Z,3045
2016-08-10T12:45:12.618Z,3185
2016-08-10T12:46:12.747Z,3650
2016-08-10T12:47:13.419Z,3405
2016-08-10T12:48:13.158Z,3365
2016-08-10T12:49:13.448Z,2985
2016-08-10T12:50:12.571Z,3635
2016-08-10T12:51:11.940Z,3365
2016-08-10T12:52:12.108Z,1605
2016-08-10T12:53:12.931Z,1485
2016-08-10T12:54:12.193Z,2560
2016-08-10T12:55:14.015Z,3240
2016-08-10T12:56:13.967Z,2180
2016-08-10T12:57:13.223Z,1445
2016-08-10T12:58:12.432Z,1410
2016-08-10T12:59:14.908Z,1635
2016-08-10T13:00:14.468Z,1390
2016-08-10T13:01:13.269Z,1335
2016-08-10T13:02:12.646Z,1320
2016-08-10T13:03:14.755Z,1325
2016-08-10T13:04:15.975Z,1335
2016-08-10T13:05:13.889Z,1400
2016-08-10T13:06:14.043Z,1325
2016-08-10T13:07:14.695Z,1285
2016-08-10T13:08:12.416Z,1275
2016-08-10T13:09:13.338Z,1300
2016-08-10T13:10:15.048Z,1470
2016-08-10T13:11:13.773Z,1265
2016-08-10T13:12:13.344Z,1280
2016-08-10T13:13:14.958Z,1235
2016-08-10T13:14:13.532Z,1225
2016-08-10T13:15:13.386Z,1320
2016-08-10T13:16:15.694Z,2070
2016-08-10T13:17:13.270Z,1875
2016-08-10T13:18:14.282Z,1290
2016-08-10T13:19:14.086Z,2880
2016-08-10T13:20:15.307Z,3175
2016-08-10T13:21:13.844Z,1000
2016-08-10T13:22:15.002Z,1275
2016-08-10T13:23:13.918Z,1085
2016-08-10T13:24:13.167Z,960
2016-08-10T13:25:12.939Z,860
2016-08-10T13:26:14.405Z,730
2016-08-10T13:27:13.970Z,635
2016-08-10T13:28:14.091Z,585
2016-08-10T13:29:13.555Z,565
2016-08-10T13:30:12.939Z,585
2016-08-10T13:31:13.081Z,625
2016-08-10T13:32:14.938Z,725
2016-08-10T13:33:13.561Z,805
2016-08-10T13:34:13.439Z,845
2016-08-10T13:35:13.666Z,825
2016-08-10T13:36:15.326Z,775
2016-08-10T13:37:13.202Z,1240
2016-08-10T13:38:13.547Z,2835
2016-08-10T13:39:14.880Z,1385
2016-08-10T13:40:14.650Z,3565
2016-08-10T13:41:14.461Z,3145
2016-08-10T13:42:14.205Z,3065
2016-08-10T13:43:14.438Z,3190
2016-08-10T13:44:15.952Z,2725
2016-08-10T13:45:14.722Z,2505
2016-08-10T13:46:13.576Z,3085
2016-08-10T13:47:12.978Z,1005
2016-08-10T13:48:14.605Z,915
2016-08-10T13:49:13.764Z,895
2016-08-10T13:50:13.681Z,920
2016-08-10T13:51:13.733Z,965
2016-08-10T13:52:13.630Z,980
2016-08-10T13:53:17.627Z,1125
2016-08-10T13:54:14.381Z,1170
2016-08-10T13:55:15.725Z,1135
2016-08-10T13:56:13.433Z,1125
2016-08-10T13:57:15.081Z,1130
2016-08-10T13:58:15.198Z,1190
2016-08-10T13:59:15.172Z,1315
2016-08-10T14:00:14.088Z,1410
2016-08-10T14:01:14.120Z,2620
2016-08-10T14:02:14.066Z,2880
2016-08-10T14:03:13.871Z,1625
2016-08-10T14:04:15.049Z,1785